createdAt,value
2023-10-06T00:00:33.224Z,15.29
2023-10-06T00:03:07.178Z,15.88
2023-10-06T00:05:34.857Z,15.99
2023-10-06T00:08:16.640Z,15.84
2023-10-06T00:10:47.094Z,15.98
2023-10-06T00:13:20.287Z,15.97
2023-10-06T00:15:50.912Z,15.96
2023-10-06T00:18:18.157Z,15.91
2023-10-06T00:20:51.026Z,15.75
2023-10-06T00:23:25.078Z,15.50
2023-10-06T00:25:53.711Z,15.91
2023-10-06T00:28:21.240Z,15.92
2023-10-06T00:30:49.351Z,15.92
2023-10-06T00:33:16.657Z,15.92
2023-10-06T00:35:45.476Z,15.92
2023-10-06T00:38:18.042Z,15.93
2023-10-06T00:40:55.998Z,15.90
2023-10-06T00:43:36.516Z,15.52
2023-10-06T00:46:10.751Z,15.96
2023-10-06T00:48:54.999Z,15.57
2023-10-06T00:51:24.276Z,15.97
2023-10-06T00:53:53.752Z,15.79
2023-10-06T00:56:26.890Z,15.92
2023-10-06T00:58:54.350Z,15.85
2023-10-06T01:01:23.432Z,16.02
2023-10-06T01:04:11.288Z,15.40
2023-10-06T01:06:40.605Z,16.05
2023-10-06T01:09:15.446Z,16.06
2023-10-06T01:11:52.413Z,16.07
2023-10-06T01:14:28.054Z,16.07
2023-10-06T01:17:14.135Z,16.04
2023-10-06T01:19:48.714Z,16.09
2023-10-06T01:22:29.891Z,16.10
2023-10-06T01:24:56.978Z,16.03
2023-10-06T01:27:27.827Z,16.11
2023-10-06T01:30:16.277Z,16.12
2023-10-06T01:32:46.999Z,16.07
2023-10-06T01:35:16.531Z,16.14
2023-10-06T01:37:44.358Z,16.08
2023-10-06T01:40:23.874Z,16.12
2023-10-06T01:42:50.516Z,15.93
2023-10-06T01:45:20.327Z,16.03
2023-10-06T01:47:46.957Z,16.07
2023-10-06T01:50:14.350Z,16.13
2023-10-06T01:52:43.547Z,16.11
2023-10-06T01:55:10.566Z,16.20
2023-10-06T01:57:37.259Z,16.07
2023-10-06T02:00:07.957Z,16.08
2023-10-06T02:02:34.708Z,16.01
2023-10-06T02:05:07.959Z,16.22
2023-10-06T02:07:36.950Z,16.22
2023-10-06T02:10:03.970Z,16.16
2023-10-06T02:12:35.402Z,15.78
2023-10-06T02:15:02.210Z,15.88
2023-10-06T02:17:31.888Z,16.23
2023-10-06T02:19:58.763Z,16.23
2023-10-06T02:22:28.700Z,16.11
2023-10-06T02:24:57.532Z,16.23
2023-10-06T02:27:24.150Z,16.10
2023-10-06T02:29:51.157Z,16.24
2023-10-06T02:32:17.860Z,16.04
2023-10-06T02:34:47.064Z,16.22
2023-10-06T02:37:22.624Z,15.88
2023-10-06T02:39:51.505Z,16.26
2023-10-06T02:42:20.728Z,16.27
2023-10-06T02:44:47.966Z,16.27
2023-10-06T02:47:15.618Z,16.27
2023-10-06T02:49:49.077Z,16.27
2023-10-06T02:52:22.788Z,15.88
2023-10-06T02:55:06.725Z,16.07
2023-10-06T02:57:40.152Z,16.19
2023-10-06T03:00:27.742Z,16.28
2023-10-06T03:03:04.933Z,16.23
2023-10-06T03:05:35.153Z,16.10
2023-10-06T03:08:11.221Z,16.15
2023-10-06T03:10:45.595Z,16.06
2023-10-06T03:13:35.141Z,16.21
2023-10-06T03:16:02.141Z,16.01
2023-10-06T03:18:32.800Z,15.90
2023-10-06T03:21:06.249Z,16.21
2023-10-06T03:23:57.740Z,16.23
2023-10-06T03:26:27.251Z,16.23
2023-10-06T03:29:03.169Z,16.16
2023-10-06T03:31:47.920Z,16.22
2023-10-06T03:34:17.772Z,16.21
2023-10-06T03:36:52.596Z,16.19
2023-10-06T03:39:29.647Z,16.13
2023-10-06T03:42:08.767Z,16.13
2023-10-06T03:44:37.958Z,16.12
2023-10-06T03:47:09.050Z,15.71
2023-10-06T03:49:36.557Z,16.10
2023-10-06T03:52:04.361Z,16.18
2023-10-06T03:54:31.249Z,16.06
2023-10-06T03:56:57.923Z,16.14
2023-10-06T03:59:26.900Z,16.17
2023-10-06T04:01:57.260Z,16.09
2023-10-06T04:04:24.265Z,16.28
2023-10-06T04:06:51.339Z,16.31
2023-10-06T04:09:22.641Z,16.35
2023-10-06T04:11:49.388Z,16.39
2023-10-06T04:14:16.062Z,16.37
2023-10-06T04:16:47.304Z,16.42
2023-10-06T04:19:17.869Z,16.52
2023-10-06T04:21:44.741Z,16.45
2023-10-06T04:24:11.433Z,16.49
2023-10-06T04:26:38.072Z,16.65
2023-10-06T04:29:05.846Z,16.44
2023-10-06T04:31:32.602Z,16.72
2023-10-06T04:34:02.430Z,16.56
2023-10-06T04:36:29.080Z,16.71
2023-10-06T04:39:06.747Z,16.81
2023-10-06T04:41:34.872Z,16.82
2023-10-06T04:44:04.084Z,16.68
2023-10-06T04:46:30.737Z,16.70
2023-10-06T04:48:57.367Z,16.81
2023-10-06T04:51:24.038Z,16.88
2023-10-06T04:53:50.680Z,16.87
2023-10-06T04:56:18.147Z,16.65
2023-10-06T04:58:45.305Z,16.90
2023-10-06T05:01:13.371Z,16.91
2023-10-06T05:03:47.200Z,16.79
2023-10-06T05:06:18.484Z,16.96
2023-10-06T05:08:50.354Z,16.98
2023-10-06T05:11:19.604Z,16.72
2023-10-06T05:13:50.581Z,17.02
2023-10-06T05:16:20.180Z,17.03
2023-10-06T05:18:48.769Z,17.03
2023-10-06T05:21:18.513Z,17.01
2023-10-06T05:23:46.652Z,17.09
2023-10-06T05:26:17.519Z,17.12
2023-10-06T05:28:49.178Z,17.13
2023-10-06T05:31:18.131Z,17.13
2023-10-06T05:33:45.556Z,17.08
2023-10-06T05:36:15.874Z,17.13
2023-10-06T05:41:16.479Z,17.05
2023-10-06T05:43:44.701Z,17.08
2023-10-06T05:46:12.826Z,17.05
2023-10-06T05:48:43.365Z,16.94
2023-10-06T05:51:11.784Z,16.97
2023-10-06T05:53:44.434Z,16.55
2023-10-06T05:56:11.889Z,16.75
2023-10-06T05:58:39.242Z,16.69
2023-10-06T06:01:07.613Z,16.84
2023-10-06T06:03:36.783Z,16.79
2023-10-06T06:06:12.065Z,16.76
2023-10-06T06:08:41.089Z,16.74
2023-10-06T06:11:08.035Z,16.70
2023-10-06T06:13:38.022Z,16.42
2023-10-06T06:16:06.711Z,16.66
2023-10-06T06:18:35.120Z,16.65
2023-10-06T06:21:08.897Z,16.63
2023-10-06T06:23:37.656Z,16.62
2023-10-06T06:26:05.314Z,16.61
2023-10-06T06:28:32.014Z,16.53
2023-10-06T06:31:05.321Z,16.61
2023-10-06T06:33:33.983Z,16.64
2023-10-06T06:36:02.038Z,16.62
2023-10-06T06:38:31.226Z,16.56
2023-10-06T06:41:01.028Z,16.70
2023-10-06T06:43:30.929Z,16.73
2023-10-06T06:45:57.652Z,16.75
2023-10-06T06:48:24.362Z,16.68
2023-10-06T06:50:51.263Z,16.74
2023-10-06T06:53:21.067Z,16.84
2023-10-06T06:55:47.902Z,16.68
2023-10-06T06:58:18.047Z,16.78
2023-10-06T07:00:49.048Z,16.90
2023-10-06T07:03:18.462Z,17.05
2023-10-06T07:05:45.402Z,17.12
2023-10-06T07:08:16.984Z,17.15
2023-10-06T07:11:04.247Z,17.13
2023-10-06T07:13:30.937Z,17.32
2023-10-06T07:16:00.755Z,17.26
2023-10-06T07:18:30.097Z,17.43
2023-10-06T07:20:56.933Z,17.49
2023-10-06T07:23:23.785Z,17.60
2023-10-06T07:25:50.772Z,17.66
2023-10-06T07:28:18.541Z,17.69
2023-10-06T07:30:47.791Z,17.72
2023-10-06T07:33:14.392Z,17.76
2023-10-06T07:35:53.072Z,17.78
2023-10-06T07:38:19.818Z,17.81
2023-10-06T07:40:49.252Z,17.83
2023-10-06T07:43:17.093Z,17.87
2023-10-06T07:45:43.919Z,17.90
2023-10-06T07:48:11.726Z,17.99
2023-10-06T07:50:39.300Z,18.05
2023-10-06T07:53:08.686Z,18.07
2023-10-06T07:55:38.376Z,18.19
2023-10-06T07:58:09.712Z,18.27
2023-10-06T08:00:40.407Z,18.35
2023-10-06T08:03:07.615Z,18.46
2023-10-06T08:05:37.372Z,18.60
2023-10-06T08:08:05.381Z,18.84
2023-10-06T08:10:32.752Z,19.20
2023-10-06T08:13:02.735Z,19.71
2023-10-06T08:15:30.235Z,20.01
2023-10-06T08:17:57.849Z,20.39
2023-10-06T08:20:26.603Z,20.68
2023-10-06T08:22:54.329Z,20.72
2023-10-06T08:25:26.411Z,21.30
2023-10-06T08:27:53.938Z,21.47
2023-10-06T08:30:21.308Z,21.41
2023-10-06T08:32:55.051Z,21.42
2023-10-06T08:35:25.014Z,21.35
2023-10-06T08:37:58.536Z,21.60
2023-10-06T08:40:25.967Z,21.89
2023-10-06T08:42:53.624Z,22.00
2023-10-06T08:45:23.654Z,22.08
2023-10-06T08:50:25.110Z,21.61
2023-10-06T08:52:53.413Z,21.89
2023-10-06T08:55:21.769Z,21.91
2023-10-06T08:57:50.654Z,21.98
2023-10-06T09:00:23.421Z,22.07
2023-10-06T09:02:52.911Z,22.14
2023-10-06T09:05:20.328Z,22.26
2023-10-06T09:08:08.446Z,22.27
2023-10-06T09:10:36.276Z,22.19
2023-10-06T09:13:05.524Z,22.18
2023-10-06T09:15:32.829Z,22.14
2023-10-06T09:18:03.640Z,22.08
2023-10-06T09:20:33.157Z,22.10
2023-10-06T09:23:02.339Z,21.86
2023-10-06T09:25:41.114Z,21.85
2023-10-06T09:28:14.670Z,21.69
2023-10-06T09:31:09.981Z,21.77
2023-10-06T09:33:36.567Z,21.96
2023-10-06T09:36:12.686Z,22.27
2023-10-06T09:38:42.431Z,22.52
2023-10-06T09:41:12.331Z,22.64
2023-10-06T09:43:41.993Z,22.78
2023-10-06T09:46:12.747Z,22.75
2023-10-06T09:48:41.601Z,23.22
2023-10-06T09:51:09.961Z,23.23
2023-10-06T09:53:40.696Z,23.36
2023-10-06T09:56:10.748Z,23.63
2023-10-06T09:58:42.033Z,23.91
2023-10-06T10:01:11.705Z,24.16
2023-10-06T10:03:39.286Z,24.36
2023-10-06T10:06:06.927Z,24.56
2023-10-06T10:08:37.928Z,24.65
2023-10-06T10:11:15.593Z,24.57
2023-10-06T10:14:12.570Z,24.65
2023-10-06T10:16:58.311Z,24.70
2023-10-06T10:19:28.541Z,24.76
2023-10-06T10:21:56.734Z,24.82
2023-10-06T10:26:55.998Z,24.98
2023-10-06T10:29:25.662Z,25.18
2023-10-06T10:32:01.231Z,25.28
2023-10-06T10:34:34.943Z,25.37
2023-10-06T10:37:07.115Z,25.48
2023-10-06T10:39:52.832Z,25.56
2023-10-06T10:42:24.499Z,25.57
2023-10-06T10:45:46.669Z,25.69
2023-10-06T10:48:15.103Z,25.74
2023-10-06T10:50:54.165Z,25.76
2023-10-06T10:53:22.283Z,25.73
2023-10-06T10:55:54.677Z,25.92
2023-10-06T10:58:43.052Z,26.08
2023-10-06T11:01:25.822Z,26.23
2023-10-06T11:04:11.595Z,26.32
2023-10-06T11:06:39.617Z,26.26
2023-10-06T11:09:13.910Z,26.46
2023-10-06T11:11:40.702Z,26.53
2023-10-06T11:14:09.852Z,26.42
2023-10-06T11:16:36.971Z,26.48
2023-10-06T11:19:06.407Z,26.49
2023-10-06T11:21:33.079Z,26.46
2023-10-06T11:23:59.757Z,26.32
2023-10-06T11:26:31.921Z,26.41
2023-10-06T11:29:01.707Z,26.43
2023-10-06T11:31:31.247Z,26.32
2023-10-06T11:33:58.992Z,26.46
2023-10-06T11:36:27.982Z,26.41
2023-10-06T11:38:54.935Z,26.40
2023-10-06T11:41:25.431Z,26.37
2023-10-06T11:43:56.133Z,26.39
2023-10-06T11:46:22.907Z,26.39
2023-10-06T11:48:51.201Z,26.36
2023-10-06T11:51:18.820Z,26.24
2023-10-06T11:53:50.160Z,26.24
2023-10-06T11:56:17.279Z,26.13
2023-10-06T11:58:49.150Z,25.99
2023-10-06T12:01:34.494Z,25.89
2023-10-06T12:04:02.292Z,25.97
2023-10-06T12:06:41.619Z,25.97
2023-10-06T12:09:09.788Z,25.91
2023-10-06T12:11:36.659Z,25.85
2023-10-06T12:14:05.095Z,25.57
2023-10-06T12:16:37.766Z,25.56
2023-10-06T12:19:04.571Z,25.50
2023-10-06T12:21:31.733Z,25.43
2023-10-06T12:23:58.416Z,24.92
2023-10-06T12:26:25.115Z,25.24
2023-10-06T12:28:55.748Z,24.79
2023-10-06T12:31:23.074Z,24.96
2023-10-06T12:33:56.712Z,24.81
2023-10-06T12:36:27.167Z,24.56
2023-10-06T12:38:53.890Z,24.50
2023-10-06T12:41:23.970Z,23.54
2023-10-06T12:43:53.021Z,24.19
2023-10-06T12:46:22.059Z,24.15
2023-10-06T12:48:48.864Z,24.09
2023-10-06T12:51:15.734Z,24.01
2023-10-06T12:53:44.883Z,23.91
2023-10-06T12:56:13.254Z,23.79
2023-10-06T12:58:40.223Z,23.65
2023-10-06T13:01:09.553Z,23.58
2023-10-06T13:03:37.914Z,23.47
2023-10-06T13:06:06.072Z,23.41
2023-10-06T13:08:35.388Z,23.33
2023-10-06T13:11:05.482Z,23.19
2023-10-06T13:13:35.340Z,23.23
2023-10-06T13:16:02.944Z,23.18
2023-10-06T13:18:31.980Z,23.16
2023-10-06T13:20:59.415Z,23.13
2023-10-06T13:23:28.419Z,22.98
2023-10-06T13:25:57.008Z,23.13
2023-10-06T13:28:23.754Z,23.16
2023-10-06T13:30:52.959Z,23.04
2023-10-06T13:33:20.611Z,23.12
2023-10-06T13:35:50.113Z,23.18
2023-10-06T13:38:17.667Z,23.21
2023-10-06T13:40:47.845Z,22.91
2023-10-06T13:43:18.860Z,23.15
2023-10-06T13:45:46.866Z,22.97
2023-10-06T13:48:16.368Z,23.01
2023-10-06T13:50:43.488Z,23.02
2023-10-06T13:53:12.805Z,23.01
2023-10-06T13:55:39.625Z,23.01
2023-10-06T13:58:06.361Z,23.01
2023-10-06T14:00:42.102Z,23.00
2023-10-06T14:03:15.867Z,22.94
2023-10-06T14:05:45.255Z,22.87
2023-10-06T14:08:15.342Z,22.76
2023-10-06T14:10:42.488Z,22.70
2023-10-06T14:13:18.341Z,22.64
2023-10-06T14:15:46.791Z,22.58
2023-10-06T14:18:15.267Z,22.50
2023-10-06T14:20:51.214Z,22.40
2023-10-06T14:23:25.456Z,22.60
2023-10-06T14:25:56.008Z,22.59
2023-10-06T14:28:23.634Z,22.58
2023-10-06T14:30:54.779Z,22.67
2023-10-06T14:33:25.540Z,22.63
2023-10-06T14:36:00.189Z,22.33
2023-10-06T14:38:32.766Z,22.36
2023-10-06T14:41:22.066Z,22.46
2023-10-06T14:44:16.320Z,22.40
2023-10-06T14:46:51.154Z,22.09
2023-10-06T14:49:28.767Z,21.56
2023-10-06T14:51:59.881Z,22.14
2023-10-06T14:54:34.217Z,22.05
2023-10-06T14:57:04.780Z,21.94
2023-10-06T14:59:32.930Z,20.94
2023-10-06T15:02:11.792Z,21.82
2023-10-06T15:04:45.375Z,21.78
2023-10-06T15:07:16.460Z,21.58
2023-10-06T15:09:45.930Z,21.67
2023-10-06T15:12:16.049Z,20.77
2023-10-06T15:14:47.926Z,21.36
2023-10-06T15:17:16.213Z,21.31
2023-10-06T15:19:48.164Z,21.14
2023-10-06T15:22:18.347Z,20.67
2023-10-06T15:24:48.257Z,21.25
2023-10-06T15:27:15.345Z,21.03
2023-10-06T15:29:47.573Z,21.07
2023-10-06T15:32:15.771Z,20.95
2023-10-06T15:34:42.718Z,20.50
2023-10-06T15:37:09.752Z,20.25
2023-10-06T15:39:40.476Z,21.21
2023-10-06T15:42:10.030Z,21.17
2023-10-06T15:44:37.308Z,21.05
2023-10-06T15:47:09.072Z,21.09
2023-10-06T15:49:38.584Z,20.70
2023-10-06T15:52:05.894Z,20.72
2023-10-06T15:54:35.820Z,20.98
2023-10-06T15:57:06.762Z,20.38
2023-10-06T15:59:35.080Z,19.74
2023-10-06T16:02:03.570Z,20.90
2023-10-06T16:04:30.390Z,20.29
2023-10-06T16:06:59.971Z,20.07
2023-10-06T16:09:27.048Z,20.15
2023-10-06T16:11:53.945Z,20.57
2023-10-06T16:14:22.851Z,20.58
2023-10-06T16:16:50.122Z,20.55
2023-10-06T16:19:18.717Z,20.38
2023-10-06T16:21:50.655Z,20.21
2023-10-06T16:24:18.625Z,20.37
2023-10-06T16:26:46.344Z,20.32
2023-10-06T16:29:17.512Z,20.32
2023-10-06T16:31:44.471Z,20.28
2023-10-06T16:34:11.261Z,20.19
2023-10-06T16:36:40.630Z,20.20
2023-10-06T16:39:18.129Z,20.14
2023-10-06T16:41:45.768Z,20.08
2023-10-06T16:44:12.906Z,19.99
2023-10-06T16:46:43.010Z,19.92
2023-10-06T16:49:10.021Z,19.86
2023-10-06T16:51:37.106Z,19.84
2023-10-06T16:54:04.146Z,19.81
2023-10-06T16:56:30.920Z,19.76
2023-10-06T16:58:57.700Z,19.72
2023-10-06T17:01:25.162Z,19.66
2023-10-06T17:03:53.024Z,19.62
2023-10-06T17:06:20.955Z,19.53
2023-10-06T17:08:47.743Z,19.30
2023-10-06T17:11:19.898Z,19.45
2023-10-06T17:13:50.292Z,19.40
2023-10-06T17:16:17.237Z,19.34
2023-10-06T17:18:44.184Z,19.27
2023-10-06T17:21:14.688Z,19.17
2023-10-06T17:23:41.891Z,19.18
2023-10-06T17:26:10.039Z,18.75
2023-10-06T17:28:37.005Z,19.09
2023-10-06T17:31:04.149Z,18.58
2023-10-06T17:33:33.684Z,18.97
2023-10-06T17:36:02.020Z,18.93
2023-10-06T17:38:31.152Z,18.61
2023-10-06T17:41:00.984Z,18.83
2023-10-06T17:43:28.067Z,18.78
2023-10-06T17:45:58.889Z,18.51
2023-10-06T17:48:26.762Z,18.68
2023-10-06T17:50:54.226Z,18.09
2023-10-06T17:53:21.379Z,18.54
2023-10-06T17:55:54.644Z,18.14
2023-10-06T17:58:22.061Z,18.51
2023-10-06T18:00:49.897Z,18.48
2023-10-06T18:03:18.720Z,18.45
2023-10-06T18:05:53.537Z,18.05
2023-10-06T18:08:20.918Z,18.39
2023-10-06T18:10:49.038Z,18.36
2023-10-06T18:13:16.569Z,18.34
2023-10-06T18:15:45.849Z,18.32
2023-10-06T18:18:15.323Z,18.28
2023-10-06T18:20:44.225Z,18.24
2023-10-06T18:23:12.277Z,18.23
2023-10-06T18:25:40.150Z,18.22
2023-10-06T18:28:08.563Z,18.22
2023-10-06T18:30:38.337Z,18.21
2023-10-06T18:33:07.246Z,18.19
2023-10-06T18:35:37.453Z,17.52
2023-10-06T18:38:04.808Z,18.23
2023-10-06T18:40:33.952Z,18.04
2023-10-06T18:43:01.737Z,18.17
2023-10-06T18:45:28.450Z,18.23
2023-10-06T18:47:58.668Z,18.22
2023-10-06T18:50:30.317Z,18.22
2023-10-06T18:52:59.558Z,18.20
2023-10-06T18:55:26.964Z,18.21
2023-10-06T18:57:55.337Z,17.74
2023-10-06T19:00:24.083Z,17.95
2023-10-06T19:02:54.367Z,18.24
2023-10-06T19:05:21.267Z,18.25
2023-10-06T19:07:50.986Z,18.27
2023-10-06T19:10:17.741Z,18.22
2023-10-06T19:12:46.906Z,18.27
2023-10-06T19:15:13.648Z,18.29
2023-10-06T19:17:40.461Z,18.25
2023-10-06T19:20:09.092Z,18.21
2023-10-06T19:22:37.001Z,18.32
2023-10-06T19:25:05.371Z,18.32
2023-10-06T19:27:34.760Z,18.32
2023-10-06T19:30:01.484Z,18.29
2023-10-06T19:32:28.708Z,18.08
2023-10-06T19:34:55.600Z,18.20
2023-10-06T19:37:22.402Z,18.24
2023-10-06T19:39:49.158Z,18.19
2023-10-06T19:42:15.838Z,18.16
2023-10-06T19:44:44.948Z,18.19
2023-10-06T19:47:14.784Z,18.10
2023-10-06T19:49:41.597Z,18.16
2023-10-06T19:52:11.271Z,18.15
2023-10-06T19:54:38.052Z,17.62
2023-10-06T19:57:04.858Z,17.95
2023-10-06T19:59:33.885Z,17.86
2023-10-06T20:02:02.503Z,18.05
2023-10-06T20:04:29.398Z,18.03
2023-10-06T20:06:59.095Z,18.03
2023-10-06T20:09:32.062Z,18.04
2023-10-06T20:12:04.528Z,17.97
2023-10-06T20:14:31.291Z,18.06
2023-10-06T20:17:00.702Z,18.06
2023-10-06T20:19:27.763Z,17.90
2023-10-06T20:21:57.617Z,17.86
2023-10-06T20:24:26.798Z,17.94
2023-10-06T20:26:56.528Z,18.03
2023-10-06T20:29:23.901Z,18.04
2023-10-06T20:31:50.623Z,18.06
2023-10-06T20:34:17.466Z,18.05
2023-10-06T20:36:46.133Z,18.05
2023-10-06T20:39:13.072Z,17.98
2023-10-06T20:41:42.773Z,17.65
2023-10-06T20:44:12.504Z,18.05
2023-10-06T20:46:45.670Z,17.99
2023-10-06T20:49:15.386Z,17.92
2023-10-06T20:51:42.676Z,18.01
2023-10-06T20:54:13.901Z,17.95
2023-10-06T20:56:40.708Z,17.95
2023-10-06T20:59:08.721Z,17.99
2023-10-06T21:01:35.871Z,17.99
2023-10-06T21:04:06.225Z,17.92
2023-10-06T21:06:36.253Z,18.00
2023-10-06T21:09:07.045Z,18.00
2023-10-06T21:11:38.474Z,18.01
2023-10-06T21:14:08.162Z,17.87
2023-10-06T21:16:37.624Z,18.02
2023-10-06T21:19:04.534Z,18.02
2023-10-06T21:21:33.707Z,17.92
2023-10-06T21:24:01.382Z,17.87
2023-10-06T21:26:28.260Z,17.92
2023-10-06T21:28:57.032Z,17.88
2023-10-06T21:31:24.469Z,17.99
2023-10-06T21:33:51.360Z,17.91
2023-10-06T21:36:20.225Z,17.94
2023-10-06T21:38:47.507Z,17.88
2023-10-06T21:41:14.294Z,17.89
2023-10-06T21:43:43.293Z,17.86
2023-10-06T21:46:10.680Z,17.87
2023-10-06T21:48:37.521Z,17.96
2023-10-06T21:51:04.397Z,17.89
2023-10-06T21:53:31.132Z,17.90
2023-10-06T21:56:10.817Z,17.89
2023-10-06T21:58:38.170Z,17.96
2023-10-06T22:01:06.123Z,17.96
2023-10-06T22:03:37.867Z,17.95
2023-10-06T22:06:09.937Z,17.87
2023-10-06T22:08:38.937Z,17.90
2023-10-06T22:11:05.859Z,17.85
2023-10-06T22:13:35.453Z,17.85
2023-10-06T22:16:02.380Z,17.88
2023-10-06T22:18:29.050Z,17.86
2023-10-06T22:20:58.432Z,17.86
2023-10-06T22:23:27.604Z,17.82
2023-10-06T22:25:54.359Z,17.73
2023-10-06T22:28:23.349Z,17.80
2023-10-06T22:30:50.289Z,17.81
2023-10-06T22:33:17.557Z,17.81
2023-10-06T22:35:46.753Z,17.81
2023-10-06T22:38:13.893Z,17.77
2023-10-06T22:40:40.985Z,17.81
2023-10-06T22:43:08.903Z,17.80
2023-10-06T22:45:38.500Z,17.72
2023-10-06T22:48:10.925Z,17.74
2023-10-06T22:50:40.274Z,17.77
2023-10-06T22:53:07.988Z,17.78
2023-10-06T22:55:37.987Z,17.76
2023-10-06T22:58:04.786Z,17.78
2023-10-06T23:00:31.484Z,17.77
2023-10-06T23:02:58.675Z,17.64
2023-10-06T23:05:26.030Z,17.60
2023-10-06T23:07:53.154Z,17.64
2023-10-06T23:10:23.817Z,17.78
2023-10-06T23:12:52.027Z,17.65
2023-10-06T23:15:23.312Z,17.72
2023-10-06T23:17:52.762Z,17.02
2023-10-06T23:20:22.670Z,17.73
2023-10-06T23:23:01.074Z,17.80
2023-10-06T23:25:39.963Z,17.81
2023-10-06T23:28:10.247Z,17.79
2023-10-06T23:30:38.259Z,17.71
2023-10-06T23:33:06.068Z,17.71
2023-10-06T23:35:32.880Z,17.64
2023-10-06T23:38:01.239Z,17.77
2023-10-06T23:40:34.610Z,17.73
2023-10-06T23:43:01.475Z,17.60
2023-10-06T23:45:38.082Z,17.73
2023-10-06T23:48:11.332Z,17.21
2023-10-06T23:50:42.392Z,17.56
2023-10-06T23:53:12.110Z,17.66
2023-10-06T23:55:44.015Z,17.56
2023-10-06T23:58:17.592Z,17.20
